createdAt,value
2018-04-14T00:01:52.306Z,64.22
2018-04-14T00:04:19.168Z,66.82
2018-04-14T00:06:46.089Z,70.87
2018-04-14T00:09:12.990Z,66.62
2018-04-14T00:11:39.822Z,65.05
2018-04-14T00:14:07.035Z,69.00
2018-04-14T00:16:33.915Z,68.80
2018-04-14T00:19:00.753Z,71.30
2018-04-14T00:21:27.610Z,64.82
2018-04-14T00:23:54.446Z,65.75
2018-04-14T00:26:21.286Z,67.72
2018-04-14T00:28:48.176Z,62.92
2018-04-14T00:31:15.345Z,76.07
2018-04-14T00:33:42.172Z,72.62
2018-04-14T00:36:09.343Z,70.10
2018-04-14T00:38:36.177Z,76.07
2018-04-14T00:41:03.027Z,69.27
2018-04-14T00:43:29.886Z,72.70
2018-04-14T00:45:56.955Z,72.15
2018-04-14T00:48:23.827Z,70.68
2018-04-14T00:50:50.661Z,74.03
2018-04-14T00:53:23.790Z,69.50
2018-04-14T00:55:50.665Z,76.62
2018-04-14T00:58:17.784Z,79.20
2018-04-14T01:00:44.658Z,74.00
2018-04-14T01:03:11.890Z,83.27
2018-04-14T01:05:38.775Z,66.70
2018-04-14T01:08:05.987Z,71.77
2018-04-14T01:10:32.870Z,76.45
2018-04-14T01:12:59.968Z,77.37
2018-04-14T01:15:26.839Z,80.93
2018-04-14T01:17:53.950Z,72.62
2018-04-14T01:20:21.013Z,73.50
2018-04-14T01:22:48.198Z,72.73
2018-04-14T01:25:15.038Z,72.97
2018-04-14T01:27:42.159Z,71.82
2018-04-14T01:30:08.986Z,76.07
2018-04-14T01:32:36.152Z,73.97
2018-04-14T01:35:03.303Z,82.35
2018-04-14T01:37:30.134Z,83.70
2018-04-14T01:39:56.998Z,87.88
2018-04-14T01:42:23.876Z,84.28
2018-04-14T01:44:50.743Z,83.93
2018-04-14T01:47:17.930Z,83.82
2018-04-14T01:49:44.773Z,84.37
2018-04-14T01:52:11.651Z,89.78
2018-04-14T01:54:38.775Z,90.43
2018-04-14T01:57:05.919Z,89.32
2018-04-14T01:59:32.750Z,105.37
2018-04-14T02:01:59.606Z,104.90
2018-04-14T02:04:26.462Z,97.60
2018-04-14T02:06:53.344Z,103.70
2018-04-14T02:09:20.270Z,97.37
2018-04-14T02:11:47.143Z,93.70
2018-04-14T02:14:14.016Z,86.00
2018-04-14T02:16:40.902Z,96.37
2018-04-14T02:19:08.035Z,92.35
2018-04-14T02:21:34.865Z,89.20
2018-04-14T02:24:02.015Z,70.28
2018-04-14T02:26:29.165Z,64.93
2018-04-14T02:28:56.009Z,83.07
2018-04-14T02:31:22.887Z,77.37
2018-04-14T02:33:49.739Z,75.53
2018-04-14T02:36:16.621Z,75.93
2018-04-14T02:38:43.789Z,88.83
2018-04-14T02:41:10.646Z,76.25
2018-04-14T02:43:37.777Z,72.83
2018-04-14T02:46:04.663Z,76.93
2018-04-14T02:48:31.527Z,84.37
2018-04-14T02:50:58.620Z,79.68
2018-04-14T02:53:25.485Z,78.03
2018-04-14T02:55:52.351Z,82.60
2018-04-14T02:58:19.178Z,84.25
2018-04-14T03:00:46.026Z,79.57
2018-04-14T03:03:13.254Z,84.22
2018-04-14T03:05:40.114Z,83.53
2018-04-14T03:08:06.999Z,99.80
2018-04-14T03:10:33.899Z,101.30
2018-04-14T03:13:00.763Z,110.53
2018-04-14T03:15:27.979Z,107.78
2018-04-14T03:17:54.810Z,119.15
2018-04-14T03:20:21.888Z,124.32
2018-04-14T03:22:49.019Z,127.85
2018-04-14T03:25:16.166Z,130.32
2018-04-14T03:27:43.222Z,141.70
2018-04-14T03:30:10.129Z,123.27
2018-04-14T03:32:37.315Z,121.40
2018-04-14T03:35:04.195Z,126.32
2018-04-14T03:37:31.301Z,130.47
2018-04-14T03:39:58.159Z,134.23
2018-04-14T03:42:24.998Z,138.15
2018-04-14T03:44:51.885Z,142.98
2018-04-14T03:47:18.980Z,148.52
2018-04-14T03:49:45.862Z,148.05
2018-04-14T03:52:12.709Z,153.65
2018-04-14T03:54:39.822Z,150.75
2018-04-14T03:57:06.691Z,171.52
2018-04-14T03:59:33.561Z,159.63
2018-04-14T04:02:01.574Z,163.15
2018-04-14T04:04:28.733Z,160.05
2018-04-14T04:06:55.598Z,170.38
2018-04-14T04:09:22.727Z,157.52
2018-04-14T04:11:49.582Z,150.68
2018-04-14T04:14:16.410Z,148.95
2018-04-14T04:16:43.254Z,135.20
2018-04-14T04:19:16.079Z,142.13
2018-04-14T04:21:48.847Z,137.73
2018-04-14T04:24:21.294Z,126.57
2018-04-14T04:26:48.142Z,124.00
2018-04-14T04:29:14.758Z,118.85
2018-04-14T04:31:41.413Z,123.90
2018-04-14T04:34:08.459Z,122.72
2018-04-14T04:36:35.107Z,112.00
2018-04-14T04:39:02.041Z,110.63
2018-04-14T04:41:28.939Z,111.30
2018-04-14T04:43:55.834Z,112.85
2018-04-14T04:46:22.469Z,105.82
2018-04-14T04:48:49.187Z,110.90
2018-04-14T04:51:15.763Z,104.57
2018-04-14T04:53:42.695Z,106.78
2018-04-14T04:56:09.305Z,99.93
2018-04-14T04:58:36.432Z,101.32
2018-04-14T05:01:03.081Z,104.60
2018-04-14T05:03:29.730Z,97.12
2018-04-14T05:05:56.378Z,100.30
2018-04-14T05:08:23.341Z,107.53
2018-04-14T05:10:49.958Z,104.65
2018-04-14T05:13:16.973Z,106.18
2018-04-14T05:15:43.623Z,96.87
2018-04-14T05:18:10.272Z,91.33
2018-04-14T05:20:36.912Z,88.45
2018-04-14T05:23:03.574Z,79.50
2018-04-14T05:25:30.212Z,80.60
2018-04-14T05:27:56.826Z,72.35
2018-04-14T05:30:23.810Z,64.53
2018-04-14T05:32:50.690Z,57.62
2018-04-14T05:35:17.590Z,63.60
2018-04-14T05:37:44.222Z,62.27
2018-04-14T05:40:11.188Z,64.00
2018-04-14T05:42:38.121Z,61.92
2018-04-14T05:45:04.803Z,64.35
2018-04-14T05:47:31.711Z,58.60
2018-04-14T05:49:58.357Z,55.57
2018-04-14T05:52:25.290Z,58.70
2018-04-14T05:54:52.246Z,45.25
2018-04-14T05:57:18.862Z,46.45
2018-04-14T05:59:45.531Z,42.85
2018-04-14T06:02:12.175Z,44.75
2018-04-14T06:04:39.094Z,38.00
2018-04-14T06:07:05.759Z,38.90
2018-04-14T06:09:32.370Z,39.67
2018-04-14T06:11:59.321Z,39.10
2018-04-14T06:14:26.265Z,40.45
2018-04-14T06:16:52.921Z,39.25
2018-04-14T06:19:19.845Z,38.38
2018-04-14T06:21:46.794Z,33.20
2018-04-14T06:24:13.452Z,36.10
2018-04-14T06:26:40.055Z,28.85
2018-04-14T06:29:06.696Z,32.00
2018-04-14T06:31:33.334Z,32.95
2018-04-14T06:34:00.002Z,28.80
2018-04-14T06:36:26.670Z,29.27
2018-04-14T06:38:53.570Z,28.35
2018-04-14T06:41:20.263Z,24.10
2018-04-14T06:43:47.259Z,30.25
2018-04-14T06:46:13.883Z,25.37
2018-04-14T06:48:40.848Z,22.63
2018-04-14T06:51:07.474Z,21.63
2018-04-14T06:53:34.086Z,21.25
2018-04-14T06:56:01.071Z,21.23
2018-04-14T06:58:27.734Z,20.08
2018-04-14T07:00:54.362Z,19.52
2018-04-14T07:03:21.006Z,20.05
2018-04-14T07:05:47.647Z,18.60
2018-04-14T07:08:14.327Z,19.33
2018-04-14T07:10:40.948Z,18.60
2018-04-14T07:13:07.616Z,16.87
2018-04-14T07:15:34.225Z,16.30
2018-04-14T07:18:01.118Z,15.55
2018-04-14T07:20:28.062Z,15.27
2018-04-14T07:22:55.015Z,14.20
2018-04-14T07:25:21.669Z,12.70
2018-04-14T07:27:48.722Z,12.45
2018-04-14T07:30:15.365Z,13.40
2018-04-14T07:32:42.014Z,12.70
2018-04-14T07:35:08.650Z,12.60
2018-04-14T07:37:35.503Z,12.30
2018-04-14T07:40:02.160Z,11.40
2018-04-14T07:42:28.794Z,10.75
2018-04-14T07:44:55.409Z,11.30
2018-04-14T07:47:22.377Z,16.50
2018-04-14T07:49:49.372Z,12.82
2018-04-14T07:52:16.016Z,11.32
2018-04-14T07:54:42.659Z,11.68
2018-04-14T07:57:09.335Z,13.02
2018-04-14T07:59:36.227Z,12.85
2018-04-14T08:02:02.876Z,12.43
2018-04-14T08:04:29.767Z,12.55
2018-04-14T08:06:56.389Z,12.60
2018-04-14T08:09:23.292Z,12.70
2018-04-14T08:11:50.271Z,12.37
2018-04-14T08:14:17.179Z,11.10
2018-04-14T08:16:44.127Z,11.82
2018-04-14T08:19:11.036Z,13.20
2018-04-14T08:21:37.735Z,10.52
2018-04-14T08:24:04.655Z,10.55
2018-04-14T08:26:31.275Z,10.52
2018-04-14T08:28:57.987Z,10.70
2018-04-14T08:31:24.611Z,9.63
2018-04-14T08:33:51.251Z,10.75
2018-04-14T08:36:17.850Z,8.85
2018-04-14T08:38:44.836Z,8.82
2018-04-14T08:41:11.459Z,11.65
2018-04-14T08:43:38.102Z,10.55
2018-04-14T08:46:05.006Z,9.30
2018-04-14T08:52:39.222Z,9.32
2018-04-14T08:55:06.090Z,8.15
2018-04-14T08:57:32.683Z,8.25
2018-04-14T08:59:59.314Z,8.27
2018-04-14T09:02:25.953Z,8.73
2018-04-14T09:04:52.529Z,9.20
2018-04-14T09:07:19.385Z,9.80
2018-04-14T09:09:46.013Z,9.77
2018-04-14T09:12:12.605Z,7.90
2018-04-14T09:14:39.427Z,8.93
2018-04-14T09:17:06.005Z,7.97
2018-04-14T09:19:32.865Z,8.23
2018-04-14T09:21:59.636Z,7.97
2018-04-14T09:24:26.668Z,11.53
2018-04-14T09:26:53.506Z,8.90
2018-04-14T09:29:20.321Z,7.12
2018-04-14T09:31:47.157Z,7.62
2018-04-14T09:34:13.937Z,7.65
2018-04-14T09:36:40.789Z,7.20
2018-04-14T09:39:07.829Z,8.02
2018-04-14T09:41:34.646Z,8.13
2018-04-14T09:44:01.478Z,8.93
2018-04-14T09:46:28.568Z,7.85
2018-04-14T09:48:55.377Z,7.60
2018-04-14T09:51:22.205Z,7.25
2018-04-14T09:53:49.032Z,6.45
2018-04-14T09:56:15.837Z,6.87
2018-04-14T09:58:42.612Z,8.60
2018-04-14T10:01:09.733Z,7.15
2018-04-14T10:03:36.529Z,6.78
2018-04-14T10:06:03.377Z,12.98
2018-04-14T10:08:30.168Z,10.85
2018-04-14T10:10:56.976Z,9.30
2018-04-14T10:13:23.795Z,7.50
2018-04-14T10:15:50.568Z,8.60
2018-04-14T10:18:17.419Z,9.80
2018-04-14T10:20:44.225Z,7.10
2018-04-14T10:23:11.067Z,6.80
2018-04-14T10:25:38.162Z,8.83
2018-04-14T10:28:05.002Z,10.77
2018-04-14T10:30:31.784Z,9.75
2018-04-14T10:32:58.569Z,8.95
2018-04-14T10:35:25.411Z,10.38
2018-04-14T10:37:52.522Z,8.60
2018-04-14T10:40:19.333Z,8.60
2018-04-14T10:42:46.143Z,9.27
2018-04-14T10:45:13.214Z,14.75
2018-04-14T10:47:40.365Z,10.90
2018-04-14T10:50:07.175Z,9.37
2018-04-14T10:52:34.005Z,9.80
2018-04-14T10:55:01.102Z,11.88
2018-04-14T10:57:27.937Z,9.88
2018-04-14T10:59:54.988Z,8.48
2018-04-14T11:02:22.140Z,10.27
2018-04-14T11:04:48.943Z,9.07
2018-04-14T11:07:16.033Z,8.23
2018-04-14T11:09:43.105Z,8.90
2018-04-14T11:12:09.892Z,9.82
2018-04-14T11:14:36.968Z,9.50
2018-04-14T11:17:03.777Z,9.57
2018-04-14T11:19:30.585Z,9.52
2018-04-14T11:21:57.702Z,9.20
2018-04-14T11:24:24.758Z,9.27
2018-04-14T11:26:51.800Z,8.80
2018-04-14T11:29:18.847Z,8.90
2018-04-14T11:31:45.652Z,9.00
2018-04-14T11:34:12.432Z,10.70
2018-04-14T11:36:39.273Z,9.50
2018-04-14T11:39:06.326Z,9.30
2018-04-14T11:41:33.129Z,8.07
2018-04-14T11:43:59.934Z,9.55
2018-04-14T11:46:26.716Z,9.20
2018-04-14T11:48:53.557Z,10.23
2018-04-14T11:51:20.339Z,10.85
2018-04-14T11:53:47.193Z,9.00
2018-04-14T11:56:14.006Z,9.55
2018-04-14T11:58:40.817Z,8.25
2018-04-14T12:01:07.649Z,9.67
2018-04-14T12:03:34.499Z,10.88
2018-04-14T12:06:01.359Z,8.93
2018-04-14T12:08:28.224Z,8.07
2018-04-14T12:10:55.038Z,8.10
2018-04-14T12:13:21.911Z,9.60
2018-04-14T12:15:49.062Z,8.63
2018-04-14T12:18:18.083Z,9.33
2018-04-14T12:20:45.231Z,9.13
2018-04-14T12:23:12.383Z,6.62
2018-04-14T12:25:39.757Z,6.10
2018-04-14T12:28:06.587Z,6.22
2018-04-14T12:30:33.898Z,6.20
2018-04-14T12:33:00.765Z,6.40
2018-04-14T12:35:27.593Z,5.57
2018-04-14T12:37:59.159Z,5.43
2018-04-14T12:40:26.321Z,5.27
2018-04-14T12:42:53.157Z,5.40
2018-04-14T12:45:20.065Z,6.45
2018-04-14T12:47:47.053Z,5.00
2018-04-14T12:50:13.876Z,6.65
2018-04-14T12:52:41.132Z,6.20
2018-04-14T12:55:08.033Z,7.65
2018-04-14T12:57:35.144Z,6.75
2018-04-14T13:00:02.030Z,6.80
2018-04-14T13:02:29.143Z,4.20
2018-04-14T13:04:56.016Z,4.12
2018-04-14T13:07:23.677Z,4.03
2018-04-14T13:09:50.522Z,4.90
2018-04-14T13:12:17.382Z,4.90
2018-04-14T13:14:44.263Z,5.65
2018-04-14T13:17:11.432Z,5.82
2018-04-14T13:19:38.687Z,6.87
2018-04-14T13:22:05.841Z,7.67
2018-04-14T13:24:32.661Z,8.57
2018-04-14T13:26:59.644Z,8.43
2018-04-14T13:29:26.520Z,10.52
2018-04-14T13:31:53.614Z,11.23
2018-04-14T13:34:21.073Z,14.87
2018-04-14T13:36:47.923Z,14.68
2018-04-14T13:39:15.075Z,15.37
2018-04-14T13:41:41.964Z,17.83
2018-04-14T13:44:08.832Z,18.57
2018-04-14T13:46:35.901Z,20.27
2018-04-14T13:49:02.754Z,18.62
2018-04-14T13:51:29.636Z,24.73
2018-04-14T13:53:56.466Z,26.37
2018-04-14T13:56:23.314Z,22.77
2018-04-14T13:58:50.139Z,24.27
2018-04-14T14:01:17.274Z,23.10
2018-04-14T14:03:44.178Z,24.37
2018-04-14T14:06:11.052Z,23.98
2018-04-14T14:08:38.218Z,21.80
2018-04-14T14:11:05.467Z,26.30
2018-04-14T14:13:32.491Z,21.73
2018-04-14T14:15:59.363Z,16.00
2018-04-14T14:18:26.227Z,18.70
2018-04-14T14:20:53.663Z,18.40
2018-04-14T14:23:20.498Z,21.00
2018-04-14T14:25:53.704Z,23.58
2018-04-14T14:28:29.479Z,25.20
2018-04-14T14:31:04.385Z,29.90
2018-04-14T14:33:40.584Z,41.08
2018-04-14T14:36:09.796Z,31.70
2018-04-14T14:38:40.203Z,30.05
2018-04-14T14:41:09.769Z,26.25
2018-04-14T14:43:36.634Z,27.48
2018-04-14T14:46:03.453Z,25.98
2018-04-14T14:48:30.690Z,20.67
2018-04-14T14:50:57.687Z,22.35
2018-04-14T14:53:24.806Z,20.17
2018-04-14T14:55:51.667Z,18.17
2018-04-14T14:58:18.798Z,17.02
2018-04-14T15:00:45.617Z,16.98
2018-04-14T15:03:12.797Z,15.93
2018-04-14T15:05:39.890Z,17.67
2018-04-14T15:08:06.998Z,19.40
2018-04-14T15:10:33.828Z,15.93
2018-04-14T15:13:00.678Z,20.93
2018-04-14T15:15:27.523Z,14.75
2018-04-14T15:17:54.379Z,14.35
2018-04-14T15:20:21.510Z,16.73
2018-04-14T15:22:48.365Z,14.85
2018-04-14T15:25:15.213Z,16.80
2018-04-14T15:27:42.055Z,14.40
2018-04-14T15:30:08.908Z,12.25
2018-04-14T15:32:35.733Z,14.10
2018-04-14T15:35:02.880Z,13.30
2018-04-14T15:37:30.031Z,14.05
2018-04-14T15:39:56.851Z,14.17
2018-04-14T15:42:23.715Z,15.85
2018-04-14T15:44:50.610Z,17.02
2018-04-14T15:47:17.665Z,17.52
2018-04-14T15:49:44.535Z,16.58
2018-04-14T15:52:11.407Z,20.55
2018-04-14T15:54:38.494Z,19.70
2018-04-14T15:57:05.375Z,21.70
2018-04-14T15:59:32.189Z,20.20
2018-04-14T16:01:59.067Z,20.52
2018-04-14T16:04:25.908Z,19.67
2018-04-14T16:06:52.961Z,19.00
2018-04-14T16:09:19.845Z,21.85
2018-04-14T16:11:46.687Z,22.05
2018-04-14T16:14:13.553Z,21.95
2018-04-14T16:16:40.751Z,24.42
2018-04-14T16:19:07.902Z,21.90
2018-04-14T16:21:35.046Z,24.27
2018-04-14T16:24:01.869Z,23.60
2018-04-14T16:26:28.759Z,23.48
2018-04-14T16:28:55.895Z,27.27
2018-04-14T16:31:22.791Z,27.70
2018-04-14T16:33:49.663Z,27.87
2018-04-14T16:36:16.830Z,27.10
2018-04-14T16:38:43.831Z,29.27
2018-04-14T16:41:10.977Z,28.08
2018-04-14T16:43:37.832Z,27.50
2018-04-14T16:46:04.657Z,28.40
2018-04-14T16:48:31.524Z,29.63
2018-04-14T16:50:58.354Z,27.27
2018-04-14T16:53:25.247Z,28.58
2018-04-14T16:55:52.113Z,28.77
2018-04-14T16:58:18.983Z,29.20
2018-04-14T17:00:46.094Z,31.00
2018-04-14T17:03:12.947Z,31.73
2018-04-14T17:05:39.804Z,32.90
2018-04-14T17:08:06.918Z,34.55
2018-04-14T17:10:33.724Z,36.00
2018-04-14T17:13:00.520Z,39.25
2018-04-14T17:15:27.324Z,38.40
2018-04-14T17:17:54.406Z,35.05
2018-04-14T17:20:21.233Z,38.63
2018-04-14T17:22:48.064Z,36.45
2018-04-14T17:25:14.905Z,37.23
2018-04-14T17:27:41.757Z,39.45
2018-04-14T17:30:08.944Z,37.35
2018-04-14T17:32:35.716Z,37.53
2018-04-14T17:35:02.532Z,40.08
2018-04-14T17:37:29.355Z,37.13
2018-04-14T17:39:56.425Z,40.65
2018-04-14T17:42:23.214Z,35.38
2018-04-14T17:44:50.029Z,39.23
2018-04-14T17:47:16.824Z,37.35
2018-04-14T17:49:43.665Z,38.08
2018-04-14T17:52:10.471Z,39.05
2018-04-14T17:54:37.262Z,35.53
2018-04-14T17:57:04.118Z,32.92
2018-04-14T17:59:31.129Z,32.80
2018-04-14T18:01:57.960Z,33.40
2018-04-14T18:04:24.774Z,34.15
2018-04-14T18:06:51.601Z,30.77
2018-04-14T18:09:18.429Z,32.35
2018-04-14T18:11:45.253Z,36.80
2018-04-14T18:14:12.097Z,37.72
2018-04-14T18:16:39.237Z,34.63
2018-04-14T18:19:06.034Z,34.35
2018-04-14T18:21:32.904Z,35.00
2018-04-14T18:23:59.974Z,38.13
2018-04-14T18:26:26.785Z,37.53
2018-04-14T18:28:53.623Z,39.88
2018-04-14T18:31:20.708Z,38.40
2018-04-14T18:33:47.569Z,37.92
2018-04-14T18:36:14.600Z,40.70
2018-04-14T18:38:41.407Z,38.23
2018-04-14T18:41:08.228Z,37.75
2018-04-14T18:43:35.038Z,41.85
2018-04-14T18:46:01.878Z,39.95
2018-04-14T18:48:28.908Z,45.60
2018-04-14T18:50:55.736Z,41.92
2018-04-14T18:53:22.546Z,41.47
2018-04-14T18:55:49.370Z,43.85
2018-04-14T18:58:16.176Z,43.70
2018-04-14T19:00:43.000Z,46.10
2018-04-14T19:03:10.076Z,48.13
2018-04-14T19:05:37.236Z,43.70
2018-04-14T19:08:04.274Z,47.70
2018-04-14T19:10:31.085Z,49.78
2018-04-14T19:12:57.913Z,50.10
2018-04-14T19:15:24.757Z,55.92
2018-04-14T19:17:51.554Z,53.00
2018-04-14T19:20:18.694Z,53.60
2018-04-14T19:22:45.515Z,57.77
2018-04-14T19:25:12.304Z,55.63
2018-04-14T19:27:39.398Z,57.70
2018-04-14T19:30:06.484Z,65.55
2018-04-14T19:32:33.320Z,55.50
2018-04-14T19:35:00.120Z,60.20
2018-04-14T19:37:27.003Z,55.55
2018-04-14T19:39:53.845Z,61.63
2018-04-14T19:42:20.893Z,57.60
2018-04-14T19:44:47.696Z,56.67
2018-04-14T19:47:14.485Z,63.10
2018-04-14T19:49:41.310Z,65.80
2018-04-14T19:52:08.133Z,61.33
2018-04-14T19:54:35.092Z,66.47
2018-04-14T19:57:01.909Z,65.60
2018-04-14T19:59:28.704Z,68.85
2018-04-14T20:01:55.516Z,72.45
2018-04-14T20:04:22.337Z,69.83
2018-04-14T20:06:49.164Z,73.90
2018-04-14T20:09:16.048Z,78.90
2018-04-14T20:11:42.872Z,78.37
2018-04-14T20:14:09.698Z,73.80
2018-04-14T20:16:36.561Z,87.43
2018-04-14T20:19:03.373Z,94.53
2018-04-14T20:21:30.203Z,89.03
2018-04-14T20:23:56.996Z,85.65
2018-04-14T20:26:23.792Z,86.00
2018-04-14T20:28:50.677Z,85.50
2018-04-14T20:31:17.510Z,88.60
2018-04-14T20:33:44.355Z,92.13
2018-04-14T20:36:11.163Z,95.72
2018-04-14T20:38:37.962Z,88.50
2018-04-14T20:41:04.812Z,93.37
2018-04-14T20:43:31.634Z,89.10
2018-04-14T20:45:58.440Z,86.07
2018-04-14T20:48:25.277Z,93.57
2018-04-14T20:50:52.084Z,83.93
2018-04-14T20:53:18.905Z,88.65
2018-04-14T20:55:45.989Z,99.30
2018-04-14T20:58:12.861Z,102.60
2018-04-14T21:00:39.682Z,111.55
2018-04-14T21:03:06.531Z,121.40
2018-04-14T21:05:33.367Z,119.23
2018-04-14T21:08:00.197Z,128.80
2018-04-14T21:10:27.005Z,126.90
2018-04-14T21:12:54.070Z,138.37
2018-04-14T21:15:21.096Z,138.35
2018-04-14T21:17:47.892Z,128.10
2018-04-14T21:20:14.944Z,140.75
2018-04-14T21:22:41.763Z,142.15
2018-04-14T21:25:08.610Z,128.75
2018-04-14T21:27:35.632Z,127.00
2018-04-14T21:30:02.473Z,149.82
2018-04-14T21:32:29.507Z,151.10
2018-04-14T21:34:56.337Z,157.77
2018-04-14T21:37:23.140Z,151.95
2018-04-14T21:39:50.178Z,150.18
2018-04-14T21:42:17.202Z,139.02
2018-04-14T21:44:44.014Z,137.40
2018-04-14T21:47:10.821Z,127.50
2018-04-14T21:49:37.672Z,128.10
2018-04-14T21:52:04.461Z,130.82
2018-04-14T21:54:31.256Z,121.97
2018-04-14T21:56:58.097Z,112.78
2018-04-14T21:59:24.936Z,115.32
2018-04-14T22:01:51.984Z,110.25
2018-04-14T22:04:19.036Z,109.43
2018-04-14T22:06:45.877Z,110.78
2018-04-14T22:09:12.700Z,108.45
2018-04-14T22:11:39.501Z,98.03
2018-04-14T22:14:06.341Z,93.63
2018-04-14T22:16:33.170Z,99.97
2018-04-14T22:19:00.302Z,99.72
2018-04-14T22:21:27.139Z,95.05
2018-04-14T22:23:53.933Z,94.97
2018-04-14T22:26:20.762Z,84.93
2018-04-14T22:28:47.588Z,86.93
2018-04-14T22:31:14.377Z,90.07
2018-04-14T22:33:41.201Z,89.15
2018-04-14T22:36:08.033Z,94.62
2018-04-14T22:38:35.141Z,90.20
2018-04-14T22:41:01.986Z,86.47
2018-04-14T22:43:28.827Z,89.18
2018-04-14T22:45:55.636Z,87.53
2018-04-14T22:48:22.428Z,85.30
2018-04-14T22:50:49.477Z,87.90
2018-04-14T22:53:16.613Z,82.80
2018-04-14T22:55:43.433Z,87.50
2018-04-14T22:58:10.250Z,85.20
2018-04-14T23:00:37.344Z,82.35
2018-04-14T23:03:04.173Z,80.62
2018-04-14T23:05:31.033Z,76.78
2018-04-14T23:07:57.820Z,81.22
2018-04-14T23:10:24.920Z,76.97
2018-04-14T23:12:51.745Z,82.15
2018-04-14T23:15:18.817Z,77.83
2018-04-14T23:17:45.642Z,84.20
2018-04-14T23:20:12.433Z,77.85
2018-04-14T23:22:39.266Z,79.57
2018-04-14T23:25:06.393Z,87.57
2018-04-14T23:27:33.438Z,80.85
2018-04-14T23:30:00.514Z,83.18
2018-04-14T23:32:27.638Z,79.47
2018-04-14T23:34:54.452Z,80.82
2018-04-14T23:37:21.541Z,84.50
2018-04-14T23:39:48.366Z,84.28
2018-04-14T23:42:15.177Z,84.50
2018-04-14T23:44:42.261Z,84.40
2018-04-14T23:47:09.112Z,117.82
2018-04-14T23:49:35.933Z,84.80
2018-04-14T23:52:02.785Z,84.57
2018-04-14T23:54:29.622Z,85.62
2018-04-14T23:56:56.446Z,90.05
2018-04-14T23:59:23.522Z,86.25
